LKPR/PRG METAR and TAF weather

Enter ICAO airport designator
Station Type Date Time Source
LKPR METAR 2024/06/14 21:30 UTC NOAA

LKPR 142130Z 16005KT CAVOK 14/11 Q1012 NOSIG


Station Type Date Time Source
LKPR Decoded METAR 2024/06/14 21:30 UTC NOAA

Praha / Ruzyne, Czech Republic (LKPR) 50-06N 014-15E 365M
Jun 14, 2024 - 05:30 PM EDT / 2024.06.14 2130 UTC
Wind: from the SSE (160 degrees) at 6 MPH (5 KT):0
Visibility: greater than 7 mile(s):0
Temperature: 57 F (14 C)
Dew Point: 51 F (11 C)
Relative Humidity: 82%
Pressure (altimeter): 29.88 in. Hg (1012 hPa)
ob: LKPR 142130Z 16005KT CAVOK 14/11 Q1012 NOSIG
cycle: 21

Station Type Date Time Source
LKPR TAF 2024/06/14 21:26 UTC NOAA